Time;durP1;ratioP1;P1;durP2;ratioP2;P2;SDS_P1;SDS_P2;PMS_P1;PMS_P2;Temp;Humidity;BMP_temperature;BMP_pressure;BME280_temperature;BME280_humidity;BME280_pressure;Samples;Min_cycle;Max_cycle;Signal;HPM_P1;HPM_P2
2022/04/30 00:00:47;;;;;;;;;;;;;;;12.56;48.93;93112.31;2058598;69;20061;-69
2022/04/30 00:03:12;;;;;;;;;;;;;;;12.38;50.94;93106.28;2058839;69;20119;-69
2022/04/30 00:05:38;;;;;;;;;;;;;;;12.41;50.83;93107.13;2058930;69;20054;-69
2022/04/30 00:08:07;;;;;;;;;;;;;;;12.34;51.62;93102.50;2059137;69;20045;-69
2022/04/30 00:10:38;;;;;;;;;;;;;;;12.40;50.26;93111.31;2059130;69;20092;-69
2022/04/30 00:13:05;;;;;;;;;;;;;;;12.28;51.47;93113.41;2059134;69;20085;-69
2022/04/30 00:15:31;;;;;;;;;;;;;;;12.27;50.60;93107.00;2059142;69;20078;-69
2022/04/30 00:17:57;;;;;;;;;;;;;;;12.28;50.88;93105.69;2059102;69;20099;-70
2022/04/30 00:20:22;;;;;;;;;;;;;;;12.32;50.91;93110.81;2059045;69;20061;-72
2022/04/30 00:22:48;;;;;;;;;;;;;;;12.10;51.48;93116.59;2059109;69;20524;-71
2022/04/30 00:25:14;;;;;;;;;;;;;;;12.05;51.57;93109.22;2059156;69;20150;-71
2022/04/30 00:27:40;;;;;;;;;;;;;;;12.07;51.69;93108.59;2072142;69;20148;-69
2022/04/30 00:30:06;;;;;;;;;;;;;;;12.01;51.62;93114.63;2059058;69;20417;-70
2022/04/30 00:32:31;;;;;;;;;;;;;;;12.04;51.27;93107.00;2071978;69;20070;-70
2022/04/30 00:34:57;;;;;;;;;;;;;;;11.88;51.94;93109.56;2059002;69;20045;-69
2022/04/30 00:37:22;;;;;;;;;;;;;;;11.92;51.51;93104.91;2059132;69;20058;-69
2022/04/30 00:39:48;;;;;;;;;;;;;;;11.85;51.67;93105.13;2059142;69;20428;-69
2022/04/30 00:42:14;;;;;;;;;;;;;;;11.88;51.26;93107.47;2059291;69;20046;-70
2022/04/30 00:44:39;;;;;;;;;;;;;;;11.72;52.22;93095.13;2059237;69;20497;-70
2022/04/30 00:47:05;;;;;;;;;;;;;;;11.64;51.99;93094.66;2058675;69;20493;-70
2022/04/30 00:49:30;;;;;;;;;;;;;;;11.73;51.72;93088.16;2058908;69;20429;-71
2022/04/30 00:51:58;;;;;;;;;;;;;;;11.78;51.54;93095.53;2058877;69;20058;-70
2022/04/30 00:54:25;;;;;;;;;;;;;;;11.84;52.35;93090.28;2059293;69;20053;-70
2022/04/30 00:56:52;;;;;;;;;;;;;;;11.91;50.20;93091.41;2072082;69;20085;-72
2022/04/30 00:59:19;;;;;;;;;;;;;;;11.83;50.99;93088.81;2058737;69;20077;-71
2022/04/30 01:01:48;;;;;;;;;;;;;;;11.63;52.30;93085.44;2072001;69;20177;-70
2022/04/30 01:04:39;;;;;;;;;;;;;;;11.47;52.58;93087.25;2054755;69;20061;-69
2022/04/30 01:07:06;;;;;;;;;;;;;;;11.45;52.61;93092.72;2058808;69;20090;-70
2022/04/30 01:09:33;;;;;;;;;;;;;;;11.63;51.84;93095.97;2058946;69;20133;-71
2022/04/30 01:11:58;;;;;;;;;;;;;;;11.69;51.21;93094.28;2058915;69;20069;-71
2022/04/30 01:14:31;;;;;;;;;;;;;;;11.41;52.59;93084.03;2058394;69;20429;-69
2022/04/30 01:16:57;;;;;;;;;;;;;;;11.35;52.12;93095.63;2058962;69;20058;-69
2022/04/30 01:19:24;;;;;;;;;;;;;;;11.37;53.76;93083.78;2058921;69;20117;-70
2022/04/30 01:21:55;;;;;;;;;;;;;;;11.18;54.30;93082.59;2058713;69;20058;-69
2022/04/30 01:24:22;;;;;;;;;;;;;;;11.29;52.80;93077.63;2058934;69;20081;-71
2022/04/30 01:26:48;;;;;;;;;;;;;;;11.55;51.43;93079.31;2058981;69;20080;-70
2022/04/30 01:29:17;;;;;;;;;;;;;;;11.60;49.82;93078.19;2058791;69;20066;-70
2022/04/30 01:37:24;;;;;;;;;;;;;;;11.19;53.36;93072.06;2058996;69;20073;-70
2022/04/30 01:40:06;;;;;;;;;;;;;;;11.29;52.20;93063.53;2059132;69;20478;-69
2022/04/30 01:42:55;;;;;;;;;;;;;;;11.10;53.21;93068.00;2058903;69;20061;-71
2022/04/30 01:45:21;;;;;;;;;;;;;;;11.18;53.83;93062.16;2072122;69;20074;-71
2022/04/30 01:47:47;;;;;;;;;;;;;;;11.09;54.30;93058.06;2058989;69;20058;-70
2022/04/30 01:50:13;;;;;;;;;;;;;;;11.19;53.48;93058.72;2071957;69;20504;-70
2022/04/30 01:52:39;;;;;;;;;;;;;;;11.09;52.88;93058.06;2058679;69;20093;-70
2022/04/30 01:55:05;;;;;;;;;;;;;;;11.12;53.10;93045.56;2058994;69;20062;-70
2022/04/30 01:57:30;;;;;;;;;;;;;;;11.07;54.36;93048.75;2058781;69;20049;-69
2022/04/30 02:00:04;;;;;;;;;;;;;;;11.05;53.33;93043.72;2059106;69;20050;-70
2022/04/30 02:02:40;;;;;;;;;;;;;;;11.09;53.57;93041.16;2071444;69;20050;-69
2022/04/30 02:05:12;;;;;;;;;;;;;;;11.18;52.28;93039.59;2059173;69;20057;-71
2022/04/30 02:07:40;;;;;;;;;;;;;;;11.11;52.83;93030.00;2059214;69;20064;-71
2022/04/30 02:10:07;;;;;;;;;;;;;;;10.98;53.67;93021.38;2059170;69;20478;-70
2022/04/30 02:12:33;;;;;;;;;;;;;;;10.89;54.47;93025.75;2071968;69;20054;-70
2022/04/30 02:15:13;;;;;;;;;;;;;;;10.87;53.60;93029.19;2059119;69;20054;-70
2022/04/30 02:17:45;;;;;;;;;;;;;;;10.90;53.58;93019.53;2058991;69;20507;-71
2022/04/30 02:20:27;;;;;;;;;;;;;;;10.90;54.53;93013.13;2059020;69;20191;-69
2022/04/30 02:23:05;;;;;;;;;;;;;;;10.83;54.51;93008.47;2071936;69;20053;-71
2022/04/30 02:25:30;;;;;;;;;;;;;;;10.76;54.23;93006.59;2058516;69;20465;-72
2022/04/30 02:27:58;;;;;;;;;;;;;;;10.82;53.60;93004.94;2072018;69;20650;-70
2022/04/30 02:30:26;;;;;;;;;;;;;;;10.68;55.00;93001.94;2072136;69;20058;-71
2022/04/30 02:32:55;;;;;;;;;;;;;;;10.81;54.18;93003.47;2058750;69;20509;-72
2022/04/30 02:35:22;;;;;;;;;;;;;;;10.59;55.14;92997.09;2058733;69;20557;-68
2022/04/30 02:37:49;;;;;;;;;;;;;;;10.74;54.35;93004.38;2058934;69;20054;-70
2022/04/30 02:40:15;;;;;;;;;;;;;;;10.80;54.75;92995.59;2058868;69;20054;-70
2022/04/30 02:42:41;;;;;;;;;;;;;;;10.83;54.15;93000.75;2058826;69;20161;-71
2022/04/30 02:48:35;;;;;;;;;;;;;;;10.75;54.95;93002.31;2058784;69;20111;-70
2022/04/30 02:51:01;;;;;;;;;;;;;;;10.87;53.35;92995.38;2058772;69;20444;-69
2022/04/30 02:53:26;;;;;;;;;;;;;;;10.89;53.63;92995.50;2058727;69;20511;-69
2022/04/30 02:55:52;;;;;;;;;;;;;;;10.75;54.74;92997.41;2058790;69;20528;-69
2022/04/30 03:01:02;;;;;;;;;;;;;;;10.67;55.05;92994.06;2059311;69;20512;-70
2022/04/30 03:03:29;;;;;;;;;;;;;;;10.40;56.07;92991.59;2058967;69;20109;-70
2022/04/30 03:05:56;;;;;;;;;;;;;;;10.39;56.48;92990.88;2058824;69;20045;-70
2022/04/30 03:08:26;;;;;;;;;;;;;;;10.45;56.26;92987.75;2058885;69;20440;-70
2022/04/30 03:10:56;;;;;;;;;;;;;;;10.36;55.68;92983.66;2071972;69;20097;-71
2022/04/30 03:13:24;;;;;;;;;;;;;;;10.57;55.52;92984.97;2058947;69;20473;-71
2022/04/30 03:15:50;;;;;;;;;;;;;;;10.60;56.27;92978.88;2058835;69;20053;-73
2022/04/30 03:23:37;;;;;;;;;;;;;;;10.61;55.72;92977.53;2058895;69;20061;-70
2022/04/30 03:26:04;;;;;;;;;;;;;;;10.48;55.77;92966.06;2058879;69;20520;-71
2022/04/30 03:28:29;;;;;;;;;;;;;;;10.28;56.91;92983.09;2059010;69;20054;-71
2022/04/30 03:30:55;;;;;;;;;;;;;;;10.44;56.25;92974.97;2059001;69;20077;-70
2022/04/30 03:33:20;;;;;;;;;;;;;;;10.52;56.64;92983.22;2071928;69;20072;-71
2022/04/30 03:35:46;;;;;;;;;;;;;;;10.53;56.24;92987.50;2058892;69;20053;-71
2022/04/30 03:38:11;;;;;;;;;;;;;;;10.54;55.25;92984.13;2071709;69;20081;-71
2022/04/30 03:40:40;;;;;;;;;;;;;;;10.53;55.53;92982.63;2058996;69;20054;-70
2022/04/30 03:43:06;;;;;;;;;;;;;;;10.50;55.91;92981.03;2058870;69;20137;-70
2022/04/30 03:45:32;;;;;;;;;;;;;;;10.58;56.02;92978.00;2058873;69;20180;-70
2022/04/30 03:47:57;;;;;;;;;;;;;;;10.65;55.14;92980.59;2058806;69;20463;-70
2022/04/30 03:50:23;;;;;;;;;;;;;;;10.58;56.42;92978.75;2071737;69;20058;-70
2022/04/30 03:52:48;;;;;;;;;;;;;;;10.56;56.90;92978.59;2058489;69;20057;-72
2022/04/30 03:55:14;;;;;;;;;;;;;;;10.68;56.19;92979.41;2071846;69;20486;-71
2022/04/30 03:57:40;;;;;;;;;;;;;;;10.61;54.92;92974.72;2058807;69;20558;-70
2022/04/30 04:00:06;;;;;;;;;;;;;;;10.49;56.47;92973.16;2058902;69;20479;-72
2022/04/30 04:02:43;;;;;;;;;;;;;;;10.63;54.99;92976.94;2058853;69;20494;-71
2022/04/30 04:05:12;;;;;;;;;;;;;;;10.69;55.20;92968.88;2058855;69;20166;-71
2022/04/30 04:07:41;;;;;;;;;;;;;;;10.56;56.13;92970.16;2058771;69;20050;-72
2022/04/30 04:10:07;;;;;;;;;;;;;;;10.50;57.31;92954.97;2058909;69;20104;-70
2022/04/30 04:12:32;;;;;;;;;;;;;;;10.51;57.33;92953.63;2071771;69;20149;-70
2022/04/30 04:17:42;;;;;;;;;;;;;;;10.76;55.54;92964.34;2058974;69;20054;-70
2022/04/30 04:20:13;;;;;;;;;;;;;;;10.71;56.96;92966.19;2058683;69;20042;-70
2022/04/30 04:22:39;;;;;;;;;;;;;;;10.58;57.89;92969.53;2071790;69;20042;-71
2022/04/30 04:27:53;;;;;;;;;;;;;;;10.73;53.85;92971.22;2058571;69;20093;-71
2022/04/30 04:30:23;;;;;;;;;;;;;;;10.30;58.61;92976.88;2071744;69;20053;-71
2022/04/30 04:32:49;;;;;;;;;;;;;;;10.60;56.72;92983.75;2071648;69;20103;-70
2022/04/30 04:35:15;;;;;;;;;;;;;;;10.60;55.60;92986.56;2058635;69;20058;-70
2022/04/30 04:37:41;;;;;;;;;;;;;;;10.65;55.10;92979.88;2071783;69;20046;-70
2022/04/30 04:40:08;;;;;;;;;;;;;;;10.73;56.24;92985.28;2058790;69;20053;-70
2022/04/30 04:42:33;;;;;;;;;;;;;;;10.57;57.10;92984.97;2071870;69;20096;-70
2022/04/30 04:44:59;;;;;;;;;;;;;;;10.64;57.36;92987.56;2058706;69;20085;-70
2022/04/30 04:47:24;;;;;;;;;;;;;;;10.65;56.68;92991.13;2058632;69;20130;-71
2022/04/30 04:49:50;;;;;;;;;;;;;;;10.76;56.93;92986.88;2059046;69;20066;-70
2022/04/30 04:52:15;;;;;;;;;;;;;;;10.70;57.75;92987.22;2058915;69;20588;-70
2022/04/30 04:54:41;;;;;;;;;;;;;;;10.72;58.25;92984.56;2059150;69;20581;-70
2022/04/30 04:57:06;;;;;;;;;;;;;;;10.84;56.72;92990.22;2069393;69;20060;-71
2022/04/30 04:59:32;;;;;;;;;;;;;;;10.76;55.78;92987.63;2059192;69;20050;-71
2022/04/30 05:01:58;;;;;;;;;;;;;;;10.98;56.33;92993.94;2072323;69;20054;-70
2022/04/30 05:04:24;;;;;;;;;;;;;;;10.97;56.49;92992.47;2059305;69;20049;-70
2022/04/30 05:06:50;;;;;;;;;;;;;;;10.85;56.73;92991.69;2058772;69;20050;-70
2022/04/30 05:09:16;;;;;;;;;;;;;;;10.81;54.51;92995.00;2059025;69;20142;-70
2022/04/30 05:11:42;;;;;;;;;;;;;;;10.82;56.89;92990.84;2059168;69;20069;-70
2022/04/30 05:14:07;;;;;;;;;;;;;;;10.53;58.83;92995.97;2059293;69;20491;-71
2022/04/30 05:16:33;;;;;;;;;;;;;;;10.85;58.37;92997.31;2059099;69;20092;-71
2022/04/30 05:18:58;;;;;;;;;;;;;;;11.02;56.56;93007.56;2059151;69;20049;-71
2022/04/30 05:21:25;;;;;;;;;;;;;;;11.15;56.71;93007.72;2072043;69;20562;-72
2022/04/30 05:23:50;;;;;;;;;;;;;;;11.05;56.10;93014.81;2059136;69;20119;-73
2022/04/30 05:26:16;;;;;;;;;;;;;;;10.80;59.08;93015.31;2059256;69;20054;-73
2022/04/30 05:28:41;;;;;;;;;;;;;;;10.61;59.91;93016.19;2072333;69;20508;-73
2022/04/30 05:31:06;;;;;;;;;;;;;;;11.02;57.63;93030.84;2058911;69;20088;-72
2022/04/30 05:33:34;;;;;;;;;;;;;;;11.09;58.87;93015.81;2071993;69;20054;-72
2022/04/30 05:36:01;;;;;;;;;;;;;;;11.07;59.69;93023.38;2058943;69;20047;-72
2022/04/30 05:38:26;;;;;;;;;;;;;;;11.16;60.11;93019.75;2072309;69;20050;-72
2022/04/30 05:40:51;;;;;;;;;;;;;;;11.29;60.76;93015.63;2059110;69;20052;-70
2022/04/30 05:43:17;;;;;;;;;;;;;;;11.33;60.30;93025.06;2058815;69;20058;-72
2022/04/30 05:45:42;;;;;;;;;;;;;;;11.40;58.79;93018.44;2059111;69;20057;-71
2022/04/30 05:48:08;;;;;;;;;;;;;;;11.43;59.30;93016.50;2059061;69;20407;-72
2022/04/30 05:50:33;;;;;;;;;;;;;;;11.47;59.88;93019.56;2059010;69;20505;-71
2022/04/30 05:52:59;;;;;;;;;;;;;;;11.62;60.37;93021.19;2059086;69;20145;-72
2022/04/30 05:55:24;;;;;;;;;;;;;;;11.69;58.62;93026.59;2059077;69;20042;-72
2022/04/30 05:57:50;;;;;;;;;;;;;;;11.68;58.30;93027.97;2059072;69;20056;-72
2022/04/30 06:00:16;;;;;;;;;;;;;;;11.59;57.12;93028.81;2059070;69;20042;-72
2022/04/30 06:02:41;;;;;;;;;;;;;;;11.65;58.00;93019.97;2072148;69;20065;-72
2022/04/30 06:05:08;;;;;;;;;;;;;;;11.79;57.69;93032.13;2072043;69;20046;-72
2022/04/30 06:07:33;;;;;;;;;;;;;;;11.71;60.44;93031.63;2058815;69;20113;-72
2022/04/30 06:09:59;;;;;;;;;;;;;;;11.57;60.95;93034.31;2058984;69;20094;-72
2022/04/30 06:12:24;;;;;;;;;;;;;;;11.75;60.61;93031.13;2072062;69;20191;-73
2022/04/30 06:14:50;;;;;;;;;;;;;;;11.87;60.39;93037.56;2072059;69;20049;-71
2022/04/30 06:17:15;;;;;;;;;;;;;;;11.89;59.71;93034.84;2059045;69;20069;-71
2022/04/30 06:19:41;;;;;;;;;;;;;;;11.89;60.52;93041.25;2059159;69;20461;-73
2022/04/30 06:22:07;;;;;;;;;;;;;;;11.78;59.75;93039.13;2059042;69;20085;-73
2022/04/30 06:24:33;;;;;;;;;;;;;;;11.52;61.27;93045.94;2072173;69;20085;-72
2022/04/30 06:26:59;;;;;;;;;;;;;;;11.74;60.67;93041.69;2059102;69;20146;-73
2022/04/30 06:29:24;;;;;;;;;;;;;;;11.25;62.33;93040.72;2059020;69;20057;-73
2022/04/30 06:31:51;;;;;;;;;;;;;;;11.55;61.01;93044.72;2059152;69;20057;-70
2022/04/30 06:34:17;;;;;;;;;;;;;;;11.63;61.16;93042.41;2072076;69;20057;-73
2022/04/30 06:36:42;;;;;;;;;;;;;;;11.68;62.16;93044.13;2058896;69;20061;-72
2022/04/30 06:39:08;;;;;;;;;;;;;;;11.66;61.56;93044.75;2059198;69;20061;-74
2022/04/30 06:41:33;;;;;;;;;;;;;;;11.30;61.61;93048.81;2058775;69;20061;-74
2022/04/30 06:43:59;;;;;;;;;;;;;;;11.09;62.26;93051.69;2058865;69;20062;-71
2022/04/30 06:46:24;;;;;;;;;;;;;;;11.06;64.13;93044.44;2059106;69;20050;-72
2022/04/30 06:48:49;;;;;;;;;;;;;;;11.33;65.21;93047.59;2058973;69;20517;-73
2022/04/30 06:51:15;;;;;;;;;;;;;;;11.47;62.13;93049.84;2058955;69;20050;-71
2022/04/30 06:59:12;;;;;;;;;;;;;;;11.73;62.36;93059.97;2058859;69;20496;-72
2022/04/30 07:01:57;;;;;;;;;;;;;;;11.65;62.71;93063.00;2072015;69;20046;-72
2022/04/30 07:04:24;;;;;;;;;;;;;;;11.56;59.47;93063.84;2058931;69;20494;-72
2022/04/30 07:06:50;;;;;;;;;;;;;;;11.53;61.65;93065.06;2058761;69;20046;-73
2022/04/30 07:09:16;;;;;;;;;;;;;;;11.45;64.18;93058.91;2059010;69;20050;-72
2022/04/30 07:11:42;;;;;;;;;;;;;;;11.55;63.01;93059.56;2058721;69;20142;-72
2022/04/30 07:14:07;;;;;;;;;;;;;;;11.59;63.22;93061.88;2058962;69;20054;-72
2022/04/30 07:16:33;;;;;;;;;;;;;;;11.81;61.57;93059.72;2059031;69;20062;-72
2022/04/30 07:19:00;;;;;;;;;;;;;;;11.78;64.19;93066.59;2058982;69;20050;-73
2022/04/30 07:21:28;;;;;;;;;;;;;;;11.68;66.28;93061.81;2058811;69;20060;-72
2022/04/30 07:23:53;;;;;;;;;;;;;;;11.61;64.91;93059.94;2071992;69;20413;-73
2022/04/30 07:26:19;;;;;;;;;;;;;;;11.60;66.96;93066.19;2071994;69;20050;-73
2022/04/30 07:28:46;;;;;;;;;;;;;;;11.77;66.85;93065.09;2058964;69;20050;-70
2022/04/30 07:31:11;;;;;;;;;;;;;;;11.79;65.36;93068.78;2071887;69;20050;-72
2022/04/30 07:33:37;;;;;;;;;;;;;;;12.05;63.59;93074.59;2058876;69;20058;-70
2022/04/30 07:36:03;;;;;;;;;;;;;;;12.01;58.99;93068.75;2058486;69;20089;-71
2022/04/30 07:38:28;;;;;;;;;;;;;;;11.73;63.85;93070.50;2058844;69;20118;-71
2022/04/30 07:40:54;;;;;;;;;;;;;;;11.90;63.20;93078.66;2058815;69;20081;-72
2022/04/30 07:43:19;;;;;;;;;;;;;;;12.13;59.54;93073.00;2071789;69;20062;-71
2022/04/30 07:45:45;;;;;;;;;;;;;;;11.71;63.73;93073.94;2058780;69;20437;-71
2022/04/30 07:48:11;;;;;;;;;;;;;;;12.04;63.50;93076.69;2058791;69;20046;-72
2022/04/30 07:50:36;;;;;;;;;;;;;;;12.02;62.24;93070.22;2058763;69;20436;-71
2022/04/30 07:53:06;;;;;;;;;;;;;;;12.14;60.00;93071.69;2058495;69;20517;-70
2022/04/30 07:55:31;;;;;;;;;;;;;;;12.24;63.51;93070.84;2058766;69;20145;-71
2022/04/30 07:57:58;;;;;;;;;;;;;;;12.21;63.24;93075.59;2058921;69;20145;-70
2022/04/30 08:00:24;;;;;;;;;;;;;;;12.14;62.56;93076.56;2071775;69;20053;-71
2022/04/30 08:02:50;;;;;;;;;;;;;;;12.26;60.73;93074.50;2071843;69;20057;-72
2022/04/30 08:05:16;;;;;;;;;;;;;;;12.13;63.46;93083.56;2058826;69;20076;-70
2022/04/30 08:07:41;;;;;;;;;;;;;;;11.88;63.96;93081.34;2058761;69;20057;-71
2022/04/30 08:10:07;;;;;;;;;;;;;;;11.93;65.00;93083.06;2071837;69;20058;-71
2022/04/30 08:12:32;;;;;;;;;;;;;;;12.15;64.21;93081.63;2059002;69;20217;-70
2022/04/30 08:14:58;;;;;;;;;;;;;;;12.47;61.26;93084.94;2058846;69;20138;-71
2022/04/30 08:17:23;;;;;;;;;;;;;;;12.59;62.17;93084.91;2058421;69;20153;-71
2022/04/30 08:19:49;;;;;;;;;;;;;;;12.48;64.33;93083.56;2058735;69;20045;-71
2022/04/30 08:22:15;;;;;;;;;;;;;;;12.40;66.04;93094.38;2058702;69;20463;-73
2022/04/30 08:24:40;;;;;;;;;;;;;;;12.65;62.52;93094.50;2072189;69;20053;-72
2022/04/30 08:27:06;;;;;;;;;;;;;;;12.78;63.97;93086.72;2059159;69;20046;-72
2022/04/30 08:29:31;;;;;;;;;;;;;;;12.68;64.11;93084.78;2059205;69;20062;-71
2022/04/30 08:35:25;;;;;;;;;;;;;;;12.75;60.05;93090.78;2059085;69;20589;-71
2022/04/30 08:37:51;;;;;;;;;;;;;;;12.69;60.80;93083.44;2059491;69;20154;-70
2022/04/30 08:40:16;;;;;;;;;;;;;;;12.58;63.50;93092.66;2072432;69;20050;-70
2022/04/30 08:42:42;;;;;;;;;;;;;;;12.25;63.88;93087.16;2072246;69;20070;-73
2022/04/30 08:45:08;;;;;;;;;;;;;;;12.64;62.58;93089.44;2059195;69;20050;-73
2022/04/30 08:47:38;;;;;;;;;;;;;;;12.59;63.39;93093.38;2059294;69;20050;-71
2022/04/30 08:50:06;;;;;;;;;;;;;;;12.59;63.36;93094.13;2072142;69;20045;-71
2022/04/30 08:52:31;;;;;;;;;;;;;;;12.59;64.24;93090.56;2071958;69;20572;-71
2022/04/30 08:54:58;;;;;;;;;;;;;;;12.62;62.69;93095.72;2072174;69;20169;-71
2022/04/30 08:57:25;;;;;;;;;;;;;;;12.84;60.70;93092.75;2059139;69;20141;-70
2022/04/30 08:59:51;;;;;;;;;;;;;;;12.81;64.26;93083.41;2072215;69;20227;-71
2022/04/30 09:02:16;;;;;;;;;;;;;;;12.62;63.42;93092.88;2059167;69;20057;-72
2022/04/30 09:04:44;;;;;;;;;;;;;;;12.23;66.23;93089.09;2059285;69;20081;-71
2022/04/30 09:07:17;;;;;;;;;;;;;;;12.17;66.07;93090.19;2058690;69;20049;-71
2022/04/30 09:09:43;;;;;;;;;;;;;;;12.62;60.05;93092.88;2059126;69;20492;-71
2022/04/30 09:12:10;;;;;;;;;;;;;;;12.91;63.02;93088.91;2059173;69;20433;-71
2022/04/30 09:14:37;;;;;;;;;;;;;;;12.28;66.17;93090.81;2059211;69;20410;-72
2022/04/30 09:17:07;;;;;;;;;;;;;;;12.64;64.06;93087.34;2072195;69;20049;-70
2022/04/30 09:19:53;;;;;;;;;;;;;;;12.78;64.52;93093.09;2059127;69;20053;-71
2022/04/30 09:22:31;;;;;;;;;;;;;;;13.01;65.16;93086.66;2058963;69;20441;-71
2022/04/30 09:24:57;;;;;;;;;;;;;;;12.41;65.64;93090.94;2059233;69;20116;-70
2022/04/30 09:27:23;;;;;;;;;;;;;;;12.69;64.09;93079.84;2059044;69;20142;-71
2022/04/30 09:29:48;;;;;;;;;;;;;;;12.78;64.54;93086.72;2059102;69;20463;-72
2022/04/30 09:32:15;;;;;;;;;;;;;;;12.87;62.75;93089.41;2058806;69;20087;-71
2022/04/30 09:40:56;;;;;;;;;;;;;;;13.19;62.64;93086.97;2059104;69;20500;-71
2022/04/30 09:43:29;;;;;;;;;;;;;;;13.17;63.76;93089.69;2071581;69;20510;-73
2022/04/30 09:54:54;;;;;;;;;;;;;;;13.33;59.86;93084.25;2072051;69;20058;-71
2022/04/30 09:57:21;;;;;;;;;;;;;;;13.45;61.34;93080.03;2072115;69;20457;-71
2022/04/30 09:59:50;;;;;;;;;;;;;;;13.56;61.68;93091.91;2059101;69;20050;-71
2022/04/30 10:02:16;;;;;;;;;;;;;;;13.46;61.79;93080.75;2058824;69;20057;-71
2022/04/30 10:04:45;;;;;;;;;;;;;;;12.75;63.48;93088.69;2059027;69;20073;-72
2022/04/30 10:07:11;;;;;;;;;;;;;;;12.99;61.67;93075.25;2058874;69;20050;-72
2022/04/30 10:09:38;;;;;;;;;;;;;;;13.16;57.51;93077.66;2058995;69;20057;-71
2022/04/30 10:12:26;;;;;;;;;;;;;;;13.55;58.98;93088.34;2071892;69;20054;-71
2022/04/30 10:15:11;;;;;;;;;;;;;;;13.43;61.30;93090.50;2058860;69;20073;-71
2022/04/30 10:17:41;;;;;;;;;;;;;;;13.56;61.51;93089.84;2071948;69;20150;-73
2022/04/30 10:20:15;;;;;;;;;;;;;;;13.82;59.77;93084.16;2058878;69;20068;-71
2022/04/30 10:22:52;;;;;;;;;;;;;;;13.32;61.64;93082.78;2058902;69;20558;-72
2022/04/30 10:25:19;;;;;;;;;;;;;;;13.69;61.06;93085.56;2058738;69;20110;-71
2022/04/30 10:27:46;;;;;;;;;;;;;;;13.96;56.33;93082.81;2071596;69;20054;-71
2022/04/30 10:30:27;;;;;;;;;;;;;;;14.02;60.85;93085.28;2072121;69;20153;-71
2022/04/30 10:33:03;;;;;;;;;;;;;;;14.11;57.01;93092.06;2059081;69;20046;-71
2022/04/30 10:35:30;;;;;;;;;;;;;;;14.15;56.90;93083.81;2058937;69;20065;-71
2022/04/30 10:38:05;;;;;;;;;;;;;;;13.89;59.04;93086.69;2059305;69;20110;-72
2022/04/30 10:40:37;;;;;;;;;;;;;;;14.31;55.82;93076.19;2071847;69;20061;-71
2022/04/30 10:43:12;;;;;;;;;;;;;;;14.24;58.04;93085.72;2071725;69;20084;-71
2022/04/30 10:45:38;;;;;;;;;;;;;;;14.05;57.89;93086.09;2058888;69;20054;-71
2022/04/30 10:48:04;;;;;;;;;;;;;;;14.28;57.37;93094.44;2058517;69;20127;-70
2022/04/30 10:50:29;;;;;;;;;;;;;;;14.22;57.70;93074.28;2071769;69;20433;-72
2022/04/30 10:52:55;;;;;;;;;;;;;;;14.29;55.85;93076.06;2071598;69;20123;-72
2022/04/30 10:55:21;;;;;;;;;;;;;;;13.96;58.34;93080.00;2058597;69;20059;-72
2022/04/30 10:57:46;;;;;;;;;;;;;;;14.17;55.71;93075.44;2058952;69;20054;-71
2022/04/30 11:00:13;;;;;;;;;;;;;;;14.10;58.91;93076.47;2058720;69;20405;-71
2022/04/30 11:06:09;;;;;;;;;;;;;;;13.99;60.81;93073.09;2058085;69;20114;-71
2022/04/30 11:12:03;;;;;;;;;;;;;;;14.48;56.66;93063.66;2058152;69;20061;-71
2022/04/30 11:14:29;;;;;;;;;;;;;;;14.22;57.60;93065.78;2058183;69;20050;-71
2022/04/30 11:16:55;;;;;;;;;;;;;;;14.11;58.41;93067.34;2071017;69;20478;-72
2022/04/30 11:19:23;;;;;;;;;;;;;;;14.74;55.38;93064.25;2058140;69;20050;-73
2022/04/30 11:21:53;;;;;;;;;;;;;;;14.84;55.87;93064.78;2058128;69;20089;-71
2022/04/30 11:24:25;;;;;;;;;;;;;;;14.76;55.80;93060.81;2058308;69;20108;-70
2022/04/30 11:26:54;;;;;;;;;;;;;;;14.99;55.01;93060.56;2058205;69;20085;-71
2022/04/30 11:29:20;;;;;;;;;;;;;;;15.14;53.44;93047.81;2058022;69;20078;-71
2022/04/30 11:31:49;;;;;;;;;;;;;;;14.35;56.57;93048.09;2071148;69;20109;-72
2022/04/30 11:34:17;;;;;;;;;;;;;;;14.80;55.74;93050.41;2058212;69;20061;-71
2022/04/30 11:36:47;;;;;;;;;;;;;;;14.82;56.00;93049.78;2071057;69;20527;-72
2022/04/30 11:39:14;;;;;;;;;;;;;;;14.07;58.11;93036.00;2058242;69;20061;-70
2022/04/30 11:41:44;;;;;;;;;;;;;;;13.95;60.00;93044.56;2058138;69;20057;-72
2022/04/30 11:44:10;;;;;;;;;;;;;;;13.94;59.49;93034.59;2058160;69;20050;-71
2022/04/30 11:46:40;;;;;;;;;;;;;;;13.67;61.22;93037.38;2058234;69;20046;-71
2022/04/30 11:49:09;;;;;;;;;;;;;;;13.28;61.33;93040.88;2071320;69;20058;-73
2022/04/30 11:51:35;;;;;;;;;;;;;;;13.75;60.52;93040.66;2058164;69;20050;-72
2022/04/30 11:54:02;;;;;;;;;;;;;;;14.51;57.65;93038.97;2071228;69;20065;-71
2022/04/30 11:56:30;;;;;;;;;;;;;;;14.17;60.05;93036.53;2058275;69;20046;-71
2022/04/30 11:58:55;;;;;;;;;;;;;;;14.30;58.19;93032.25;2058245;69;20113;-70
2022/04/30 12:01:29;;;;;;;;;;;;;;;14.31;58.13;93030.16;2058577;69;20054;-73
2022/04/30 12:03:56;;;;;;;;;;;;;;;14.13;59.80;93027.09;2071502;69;20057;-72
2022/04/30 12:06:23;;;;;;;;;;;;;;;14.21;60.73;93024.69;2058511;69;20050;-71
2022/04/30 12:08:48;;;;;;;;;;;;;;;14.55;59.15;93025.03;2058513;69;20089;-72
2022/04/30 12:11:14;;;;;;;;;;;;;;;14.39;60.79;93028.47;2071397;69;20683;-71
2022/04/30 12:13:40;;;;;;;;;;;;;;;15.39;58.05;93024.22;2071480;69;20050;-72
2022/04/30 12:16:06;;;;;;;;;;;;;;;15.13;57.00;93015.91;2058432;69;20119;-71
2022/04/30 12:26:55;;;;;;;;;;;;;;;14.63;57.75;93008.44;2058511;69;20099;-70
2022/04/30 12:29:22;;;;;;;;;;;;;;;14.97;57.08;93015.81;2058325;69;20060;-70
2022/04/30 12:35:22;;;;;;;;;;;;;;;15.33;56.15;93009.75;2058603;69;20050;-71
2022/04/30 12:37:48;;;;;;;;;;;;;;;15.66;54.13;93003.53;2058631;69;20046;-71
2022/04/30 12:40:14;;;;;;;;;;;;;;;15.40;53.88;93009.41;2071689;69;20054;-72
2022/04/30 12:46:17;;;;;;;;;;;;;;;14.81;57.32;92997.31;2058589;69;20115;-71
2022/04/30 12:52:12;;;;;;;;;;;;;;;15.64;53.16;93004.19;2058507;69;20138;-72
2022/04/30 12:54:38;;;;;;;;;;;;;;;14.77;58.56;93000.66;2071940;69;20149;-72
2022/04/30 12:57:07;;;;;;;;;;;;;;;15.65;53.46;93002.06;2058091;69;20046;-69
2022/04/30 12:59:36;;;;;;;;;;;;;;;15.26;52.86;93000.22;2058373;69;20081;-70
2022/04/30 13:02:01;;;;;;;;;;;;;;;15.43;52.35;92996.78;2058646;69;20119;-71
2022/04/30 13:04:27;;;;;;;;;;;;;;;14.93;54.17;92995.78;2059108;69;20141;-70
2022/04/30 13:06:53;;;;;;;;;;;;;;;14.62;54.46;92990.00;2058690;69;20627;-71
2022/04/30 13:14:46;;;;;;;;;;;;;;;14.63;55.28;92989.34;2059018;69;20054;-71
2022/04/30 13:17:12;;;;;;;;;;;;;;;14.90;54.93;92985.00;2058677;69;20076;-72
2022/04/30 13:19:40;;;;;;;;;;;;;;;14.58;55.76;92982.00;2072017;69;20054;-70
2022/04/30 13:22:06;;;;;;;;;;;;;;;14.66;55.51;92984.50;2058854;69;20053;-72
2022/04/30 13:24:33;;;;;;;;;;;;;;;14.78;57.47;92987.94;2059076;69;20046;-71
2022/04/30 13:26:59;;;;;;;;;;;;;;;15.38;55.29;92983.03;2058915;69;20102;-72
2022/04/30 13:29:24;;;;;;;;;;;;;;;15.17;55.47;92982.09;2058981;69;20054;-70
2022/04/30 13:35:18;;;;;;;;;;;;;;;14.87;57.03;92978.47;2058415;69;20429;-71
2022/04/30 13:37:45;;;;;;;;;;;;;;;14.42;55.92;92972.66;2072088;69;20054;-73
2022/04/30 13:40:11;;;;;;;;;;;;;;;14.64;56.39;92973.81;2059062;69;20486;-73
2022/04/30 13:42:41;;;;;;;;;;;;;;;14.76;55.48;92982.19;2058953;69;20057;-73
2022/04/30 13:45:07;;;;;;;;;;;;;;;14.56;54.79;92978.34;2072004;69;20078;-72
2022/04/30 13:47:32;;;;;;;;;;;;;;;13.88;56.71;92977.69;2058937;69;20189;-71
2022/04/30 13:49:58;;;;;;;;;;;;;;;14.60;54.48;92976.44;2071823;69;20058;-72
2022/04/30 13:52:24;;;;;;;;;;;;;;;15.08;54.86;92974.56;2058923;69;20123;-72
2022/04/30 13:54:50;;;;;;;;;;;;;;;15.44;54.54;92974.81;2058927;69;20046;-71
2022/04/30 13:57:15;;;;;;;;;;;;;;;15.75;53.36;92968.47;2058852;69;20049;-71
2022/04/30 14:03:09;;;;;;;;;;;;;;;15.20;53.72;92960.22;2058672;69;20093;-72
2022/04/30 14:05:35;;;;;;;;;;;;;;;15.74;52.34;92964.91;2071738;69;20054;-70
2022/04/30 14:08:00;;;;;;;;;;;;;;;15.95;52.66;92969.41;2058445;69;20050;-73
2022/04/30 14:10:29;;;;;;;;;;;;;;;16.02;52.31;92964.72;2058958;69;20190;-71
2022/04/30 14:14:55;;;;;;;;;;;;;;;16.09;53.08;92960.81;2059059;69;20137;-71